sensor_id;sensor_type;location;lat;lon;timestamp;pressure;altitude;pressure_sealevel;temperature;humidity
54870;BME280;40756;-37.950;145.008;2023-12-22T00:00:10;101658.58;;;21.74;30.54
54870;BME280;40756;-37.950;145.008;2023-12-22T00:02:39;101659.57;;;22.00;29.94
54870;BME280;40756;-37.950;145.008;2023-12-22T00:05:09;101651.74;;;21.90;29.05
54870;BME280;40756;-37.950;145.008;2023-12-22T00:07:38;101654.44;;;22.31;29.66
54870;BME280;40756;-37.950;145.008;2023-12-22T00:10:08;101648.78;;;21.29;29.65
54870;BME280;40756;-37.950;145.008;2023-12-22T00:12:38;101643.63;;;22.66;28.78
54870;BME280;40756;-37.950;145.008;2023-12-22T00:15:08;101638.92;;;22.45;28.78
54870;BME280;40756;-37.950;145.008;2023-12-22T00:17:37;101638.42;;;21.96;29.41
54870;BME280;40756;-37.950;145.008;2023-12-22T00:20:07;101636.89;;;21.71;29.24
54870;BME280;40756;-37.950;145.008;2023-12-22T00:22:36;101627.73;;;21.96;29.11
54870;BME280;40756;-37.950;145.008;2023-12-22T00:25:06;101626.16;;;21.92;29.28
54870;BME280;40756;-37.950;145.008;2023-12-22T00:27:36;101623.27;;;22.59;28.57
54870;BME280;40756;-37.950;145.008;2023-12-22T00:30:06;101623.95;;;21.28;29.28
54870;BME280;40756;-37.950;145.008;2023-12-22T00:32:36;101619.78;;;20.25;29.99
54870;BME280;40756;-37.950;145.008;2023-12-22T00:35:06;101612.90;;;21.02;29.71
54870;BME280;40756;-37.950;145.008;2023-12-22T00:37:36;101615.80;;;20.76;30.35
54870;BME280;40756;-37.950;145.008;2023-12-22T00:40:06;101609.47;;;22.16;29.86
54870;BME280;40756;-37.950;145.008;2023-12-22T00:42:36;101609.70;;;21.78;29.16
54870;BME280;40756;-37.950;145.008;2023-12-22T00:45:06;101601.07;;;22.04;29.24
54870;BME280;40756;-37.950;145.008;2023-12-22T00:47:36;101600.02;;;22.99;28.78
54870;BME280;40756;-37.950;145.008;2023-12-22T00:50:06;101605.36;;;22.67;29.19
54870;BME280;40756;-37.950;145.008;2023-12-22T00:52:35;101593.41;;;23.23;28.16
54870;BME280;40756;-37.950;145.008;2023-12-22T00:55:05;101590.84;;;22.39;28.68
54870;BME280;40756;-37.950;145.008;2023-12-22T00:57:34;101583.89;;;21.77;29.08
54870;BME280;40756;-37.950;145.008;2023-12-22T01:00:04;101584.66;;;21.72;28.85
54870;BME280;40756;-37.950;145.008;2023-12-22T01:02:34;101578.70;;;21.77;28.28
54870;BME280;40756;-37.950;145.008;2023-12-22T01:05:04;101588.37;;;23.16;28.50
54870;BME280;40756;-37.950;145.008;2023-12-22T01:07:33;101584.24;;;23.29;27.24
54870;BME280;40756;-37.950;145.008;2023-12-22T01:10:02;101585.03;;;23.31;27.40
54870;BME280;40756;-37.950;145.008;2023-12-22T01:12:32;101575.06;;;24.24;26.72
54870;BME280;40756;-37.950;145.008;2023-12-22T01:15:01;101575.32;;;23.80;26.58
54870;BME280;40756;-37.950;145.008;2023-12-22T01:17:31;101565.30;;;23.32;26.15
54870;BME280;40756;-37.950;145.008;2023-12-22T01:20:00;101570.78;;;23.35;26.72
54870;BME280;40756;-37.950;145.008;2023-12-22T01:22:29;101558.95;;;23.70;25.70
54870;BME280;40756;-37.950;145.008;2023-12-22T01:24:59;101553.12;;;24.96;25.75
54870;BME280;40756;-37.950;145.008;2023-12-22T01:27:28;101554.46;;;24.03;26.25
54870;BME280;40756;-37.950;145.008;2023-12-22T01:29:57;101551.96;;;23.50;25.90
54870;BME280;40756;-37.950;145.008;2023-12-22T01:32:27;101536.87;;;23.96;26.86
54870;BME280;40756;-37.950;145.008;2023-12-22T01:34:56;101536.86;;;23.86;26.69
54870;BME280;40756;-37.950;145.008;2023-12-22T01:37:25;101538.86;;;23.26;26.87
54870;BME280;40756;-37.950;145.008;2023-12-22T01:39:56;101535.78;;;23.16;26.62
54870;BME280;40756;-37.950;145.008;2023-12-22T01:42:25;101534.03;;;24.17;26.42
54870;BME280;40756;-37.950;145.008;2023-12-22T01:44:55;101525.63;;;24.13;25.55
54870;BME280;40756;-37.950;145.008;2023-12-22T01:47:24;101529.18;;;24.36;26.15
54870;BME280;40756;-37.950;145.008;2023-12-22T01:49:54;101520.42;;;24.90;26.27
54870;BME280;40756;-37.950;145.008;2023-12-22T01:52:24;101518.82;;;24.54;26.57
54870;BME280;40756;-37.950;145.008;2023-12-22T01:54:54;101512.14;;;24.58;26.82
54870;BME280;40756;-37.950;145.008;2023-12-22T01:57:24;101516.06;;;24.32;26.47
54870;BME280;40756;-37.950;145.008;2023-12-22T01:59:54;101511.05;;;24.58;27.19
54870;BME280;40756;-37.950;145.008;2023-12-22T02:02:23;101503.73;;;25.09;26.53
54870;BME280;40756;-37.950;145.008;2023-12-22T02:04:53;101498.53;;;24.30;26.09
54870;BME280;40756;-37.950;145.008;2023-12-22T02:07:23;101491.19;;;24.09;27.81
54870;BME280;40756;-37.950;145.008;2023-12-22T02:09:54;101488.28;;;24.07;27.02
54870;BME280;40756;-37.950;145.008;2023-12-22T02:12:23;101483.57;;;23.04;27.92
54870;BME280;40756;-37.950;145.008;2023-12-22T02:14:52;101470.00;;;24.18;28.00
54870;BME280;40756;-37.950;145.008;2023-12-22T02:17:26;101472.06;;;24.45;28.40
54870;BME280;40756;-37.950;145.008;2023-12-22T02:20:00;101466.63;;;24.67;28.32
54870;BME280;40756;-37.950;145.008;2023-12-22T02:22:31;101465.56;;;24.47;28.06
54870;BME280;40756;-37.950;145.008;2023-12-22T02:25:00;101458.50;;;23.87;28.08
54870;BME280;40756;-37.950;145.008;2023-12-22T02:27:37;101458.59;;;23.27;29.18
54870;BME280;40756;-37.950;145.008;2023-12-22T02:30:11;101448.87;;;23.41;28.80
54870;BME280;40756;-37.950;145.008;2023-12-22T02:32:44;101440.92;;;24.85;28.68
54870;BME280;40756;-37.950;145.008;2023-12-22T02:35:19;101442.15;;;24.99;28.18
54870;BME280;40756;-37.950;145.008;2023-12-22T02:37:50;101442.69;;;24.76;28.97
54870;BME280;40756;-37.950;145.008;2023-12-22T02:40:27;101440.45;;;24.60;28.14
54870;BME280;40756;-37.950;145.008;2023-12-22T02:42:59;101432.45;;;24.30;28.55
54870;BME280;40756;-37.950;145.008;2023-12-22T02:45:33;101427.77;;;25.86;27.45
54870;BME280;40756;-37.950;145.008;2023-12-22T02:48:03;101418.67;;;25.31;27.61
54870;BME280;40756;-37.950;145.008;2023-12-22T02:50:33;101425.32;;;25.30;27.61
54870;BME280;40756;-37.950;145.008;2023-12-22T02:53:04;101421.65;;;23.68;28.53
54870;BME280;40756;-37.950;145.008;2023-12-22T02:55:34;101420.53;;;24.68;27.94
54870;BME280;40756;-37.950;145.008;2023-12-22T02:58:05;101407.73;;;25.52;27.06
54870;BME280;40756;-37.950;145.008;2023-12-22T03:00:35;101412.70;;;24.40;28.04
54870;BME280;40756;-37.950;145.008;2023-12-22T03:03:06;101397.43;;;24.84;27.51
54870;BME280;40756;-37.950;145.008;2023-12-22T03:05:37;101405.90;;;25.42;27.11
54870;BME280;40756;-37.950;145.008;2023-12-22T03:08:07;101399.72;;;25.99;27.27
54870;BME280;40756;-37.950;145.008;2023-12-22T03:10:37;101394.87;;;25.62;27.47
54870;BME280;40756;-37.950;145.008;2023-12-22T03:13:13;101393.16;;;25.42;27.97
54870;BME280;40756;-37.950;145.008;2023-12-22T03:15:43;101389.29;;;24.01;28.27
54870;BME280;40756;-37.950;145.008;2023-12-22T03:18:12;101386.68;;;24.82;27.63
54870;BME280;40756;-37.950;145.008;2023-12-22T03:20:42;101382.08;;;24.56;26.33
54870;BME280;40756;-37.950;145.008;2023-12-22T03:23:12;101380.90;;;26.11;26.39
54870;BME280;40756;-37.950;145.008;2023-12-22T03:25:42;101382.65;;;26.45;26.88
54870;BME280;40756;-37.950;145.008;2023-12-22T03:28:11;101376.63;;;25.98;26.95
54870;BME280;40756;-37.950;145.008;2023-12-22T03:30:41;101366.34;;;25.30;26.92
54870;BME280;40756;-37.950;145.008;2023-12-22T03:33:11;101359.88;;;27.67;26.04
54870;BME280;40756;-37.950;145.008;2023-12-22T03:35:41;101361.78;;;27.57;25.71
54870;BME280;40756;-37.950;145.008;2023-12-22T03:38:13;101353.83;;;26.79;25.40
54870;BME280;40756;-37.950;145.008;2023-12-22T03:40:43;101351.03;;;26.40;25.96
54870;BME280;40756;-37.950;145.008;2023-12-22T03:43:13;101348.28;;;26.18;26.16
54870;BME280;40756;-37.950;145.008;2023-12-22T03:45:42;101346.35;;;25.81;26.69
54870;BME280;40756;-37.950;145.008;2023-12-22T03:48:11;101339.88;;;26.32;26.25
54870;BME280;40756;-37.950;145.008;2023-12-22T03:50:41;101337.06;;;25.84;27.07
54870;BME280;40756;-37.950;145.008;2023-12-22T03:53:11;101339.61;;;25.35;27.91
54870;BME280;40756;-37.950;145.008;2023-12-22T03:55:41;101339.38;;;25.83;26.95
54870;BME280;40756;-37.950;145.008;2023-12-22T03:58:12;101338.56;;;24.96;27.46
54870;BME280;40756;-37.950;145.008;2023-12-22T04:00:41;101332.65;;;25.74;27.10
54870;BME280;40756;-37.950;145.008;2023-12-22T04:03:11;101335.37;;;26.33;26.41
54870;BME280;40756;-37.950;145.008;2023-12-22T04:05:40;101323.21;;;26.29;26.38
54870;BME280;40756;-37.950;145.008;2023-12-22T04:08:09;101332.51;;;24.25;27.82
54870;BME280;40756;-37.950;145.008;2023-12-22T04:10:39;101337.73;;;25.69;27.06
54870;BME280;40756;-37.950;145.008;2023-12-22T04:13:08;101327.43;;;25.38;27.18
54870;BME280;40756;-37.950;145.008;2023-12-22T04:15:38;101322.83;;;25.75;27.95
54870;BME280;40756;-37.950;145.008;2023-12-22T04:18:07;101324.84;;;24.58;29.64
54870;BME280;40756;-37.950;145.008;2023-12-22T04:20:36;101318.35;;;24.47;29.19
54870;BME280;40756;-37.950;145.008;2023-12-22T04:23:06;101321.09;;;25.80;27.61
54870;BME280;40756;-37.950;145.008;2023-12-22T04:25:36;101329.02;;;24.95;28.25
54870;BME280;40756;-37.950;145.008;2023-12-22T04:28:05;101319.39;;;24.38;27.79
54870;BME280;40756;-37.950;145.008;2023-12-22T04:30:35;101317.78;;;24.89;28.57
54870;BME280;40756;-37.950;145.008;2023-12-22T04:33:04;101317.93;;;25.82;27.79
54870;BME280;40756;-37.950;145.008;2023-12-22T04:35:34;101313.51;;;25.74;28.44
54870;BME280;40756;-37.950;145.008;2023-12-22T04:38:04;101314.04;;;27.48;26.98
54870;BME280;40756;-37.950;145.008;2023-12-22T04:40:33;101313.66;;;24.87;28.35
54870;BME280;40756;-37.950;145.008;2023-12-22T04:43:03;101320.78;;;25.64;27.79
54870;BME280;40756;-37.950;145.008;2023-12-22T04:45:33;101314.41;;;24.38;29.14
54870;BME280;40756;-37.950;145.008;2023-12-22T04:48:02;101312.28;;;24.28;29.73
54870;BME280;40756;-37.950;145.008;2023-12-22T04:50:31;101305.91;;;25.40;29.83
54870;BME280;40756;-37.950;145.008;2023-12-22T04:53:01;101303.74;;;25.73;28.35
54870;BME280;40756;-37.950;145.008;2023-12-22T04:55:31;101305.32;;;24.88;28.78
54870;BME280;40756;-37.950;145.008;2023-12-22T04:58:00;101301.91;;;24.49;28.80
54870;BME280;40756;-37.950;145.008;2023-12-22T05:00:30;101304.43;;;24.23;29.67
54870;BME280;40756;-37.950;145.008;2023-12-22T05:02:59;101299.66;;;25.47;28.73
54870;BME280;40756;-37.950;145.008;2023-12-22T05:05:28;101305.78;;;24.19;29.51
54870;BME280;40756;-37.950;145.008;2023-12-22T05:07:58;101300.15;;;25.51;28.27
54870;BME280;40756;-37.950;145.008;2023-12-22T05:10:27;101305.91;;;23.84;30.68
54870;BME280;40756;-37.950;145.008;2023-12-22T05:12:56;101297.11;;;23.34;30.91
54870;BME280;40756;-37.950;145.008;2023-12-22T05:15:26;101288.19;;;24.63;30.03
54870;BME280;40756;-37.950;145.008;2023-12-22T05:17:55;101290.98;;;23.86;30.61
54870;BME280;40756;-37.950;145.008;2023-12-22T05:20:24;101293.39;;;24.32;30.27
54870;BME280;40756;-37.950;145.008;2023-12-22T05:22:54;101297.29;;;24.29;30.92
54870;BME280;40756;-37.950;145.008;2023-12-22T05:25:23;101291.76;;;23.65;33.27
54870;BME280;40756;-37.950;145.008;2023-12-22T05:27:52;101294.65;;;24.38;32.33
54870;BME280;40756;-37.950;145.008;2023-12-22T05:30:22;101293.54;;;25.19;32.06
54870;BME280;40756;-37.950;145.008;2023-12-22T05:32:52;101294.35;;;25.06;31.36
54870;BME280;40756;-37.950;145.008;2023-12-22T05:35:21;101296.40;;;23.92;32.83
54870;BME280;40756;-37.950;145.008;2023-12-22T05:37:50;101290.63;;;22.54;33.48
54870;BME280;40756;-37.950;145.008;2023-12-22T05:40:20;101291.03;;;23.32;33.84
54870;BME280;40756;-37.950;145.008;2023-12-22T05:42:49;101293.51;;;21.11;36.01
54870;BME280;40756;-37.950;145.008;2023-12-22T05:45:19;101283.94;;;23.43;34.60
54870;BME280;40756;-37.950;145.008;2023-12-22T05:47:49;101279.25;;;22.30;35.11
54870;BME280;40756;-37.950;145.008;2023-12-22T05:50:18;101280.96;;;23.46;34.62
54870;BME280;40756;-37.950;145.008;2023-12-22T05:52:48;101276.15;;;22.73;35.68
54870;BME280;40756;-37.950;145.008;2023-12-22T05:55:17;101264.75;;;23.47;34.73
54870;BME280;40756;-37.950;145.008;2023-12-22T05:57:46;101258.22;;;23.59;34.10
54870;BME280;40756;-37.950;145.008;2023-12-22T06:00:16;101260.49;;;22.82;35.15
54870;BME280;40756;-37.950;145.008;2023-12-22T06:02:46;101263.59;;;22.47;35.49
54870;BME280;40756;-37.950;145.008;2023-12-22T06:05:16;101265.03;;;21.27;36.38
54870;BME280;40756;-37.950;145.008;2023-12-22T06:07:45;101266.86;;;21.27;36.75
54870;BME280;40756;-37.950;145.008;2023-12-22T06:10:15;101266.52;;;21.95;36.72
54870;BME280;40756;-37.950;145.008;2023-12-22T06:12:44;101264.77;;;22.04;35.88
54870;BME280;40756;-37.950;145.008;2023-12-22T06:15:14;101266.04;;;21.79;36.00
54870;BME280;40756;-37.950;145.008;2023-12-22T06:17:43;101253.24;;;23.70;34.53
54870;BME280;40756;-37.950;145.008;2023-12-22T06:20:12;101261.38;;;21.79;35.31
54870;BME280;40756;-37.950;145.008;2023-12-22T06:22:42;101261.14;;;21.88;36.09
54870;BME280;40756;-37.950;145.008;2023-12-22T06:25:11;101251.31;;;20.73;37.45
54870;BME280;40756;-37.950;145.008;2023-12-22T06:27:41;101250.58;;;21.52;36.01
54870;BME280;40756;-37.950;145.008;2023-12-22T06:30:11;101251.55;;;22.55;36.11
54870;BME280;40756;-37.950;145.008;2023-12-22T06:32:40;101254.76;;;23.24;34.94
54870;BME280;40756;-37.950;145.008;2023-12-22T06:35:10;101255.39;;;22.39;34.75
54870;BME280;40756;-37.950;145.008;2023-12-22T06:37:39;101259.36;;;21.46;35.84
54870;BME280;40756;-37.950;145.008;2023-12-22T06:40:09;101260.38;;;21.93;35.87
54870;BME280;40756;-37.950;145.008;2023-12-22T06:42:39;101265.68;;;20.34;37.69
54870;BME280;40756;-37.950;145.008;2023-12-22T06:45:09;101263.44;;;20.62;37.80
54870;BME280;40756;-37.950;145.008;2023-12-22T06:47:40;101265.58;;;21.79;36.93
54870;BME280;40756;-37.950;145.008;2023-12-22T06:50:10;101263.94;;;22.70;36.07
54870;BME280;40756;-37.950;145.008;2023-12-22T06:52:39;101265.99;;;22.29;36.40
54870;BME280;40756;-37.950;145.008;2023-12-22T06:55:09;101271.83;;;20.22;38.09
54870;BME280;40756;-37.950;145.008;2023-12-22T06:57:39;101267.72;;;21.60;37.44
54870;BME280;40756;-37.950;145.008;2023-12-22T07:00:09;101265.87;;;22.11;37.03
54870;BME280;40756;-37.950;145.008;2023-12-22T07:02:39;101265.28;;;22.06;35.99
54870;BME280;40756;-37.950;145.008;2023-12-22T07:05:41;101272.59;;;21.97;36.11
54870;BME280;40756;-37.950;145.008;2023-12-22T07:08:10;101273.12;;;21.67;36.76
54870;BME280;40756;-37.950;145.008;2023-12-22T07:10:39;101267.88;;;21.67;37.59
54870;BME280;40756;-37.950;145.008;2023-12-22T07:13:09;101263.07;;;22.05;36.44
54870;BME280;40756;-37.950;145.008;2023-12-22T07:15:38;101270.88;;;21.54;37.30
54870;BME280;40756;-37.950;145.008;2023-12-22T07:18:08;101265.98;;;20.32;38.45
54870;BME280;40756;-37.950;145.008;2023-12-22T07:20:37;101271.87;;;21.70;36.65
54870;BME280;40756;-37.950;145.008;2023-12-22T07:23:06;101281.71;;;20.76;38.06
54870;BME280;40756;-37.950;145.008;2023-12-22T07:25:39;101272.10;;;20.83;38.71
54870;BME280;40756;-37.950;145.008;2023-12-22T07:28:08;101274.64;;;20.05;39.79
54870;BME280;40756;-37.950;145.008;2023-12-22T07:30:37;101271.14;;;20.76;39.68
54870;BME280;40756;-37.950;145.008;2023-12-22T07:33:07;101274.06;;;20.03;39.83
54870;BME280;40756;-37.950;145.008;2023-12-22T07:35:36;101277.79;;;20.52;40.50
54870;BME280;40756;-37.950;145.008;2023-12-22T07:38:06;101272.10;;;19.88;40.19
54870;BME280;40756;-37.950;145.008;2023-12-22T07:40:35;101277.00;;;20.45;39.67
54870;BME280;40756;-37.950;145.008;2023-12-22T07:43:05;101274.89;;;20.12;39.68
54870;BME280;40756;-37.950;145.008;2023-12-22T07:45:34;101278.87;;;19.15;41.22
54870;BME280;40756;-37.950;145.008;2023-12-22T07:48:05;101283.59;;;20.20;40.69
54870;BME280;40756;-37.950;145.008;2023-12-22T07:50:34;101277.52;;;18.99;41.75
54870;BME280;40756;-37.950;145.008;2023-12-22T07:53:04;101281.71;;;20.07;41.45
54870;BME280;40756;-37.950;145.008;2023-12-22T07:55:33;101278.89;;;19.79;41.94
54870;BME280;40756;-37.950;145.008;2023-12-22T07:58:03;101277.55;;;20.54;40.41
54870;BME280;40756;-37.950;145.008;2023-12-22T08:00:32;101288.20;;;20.44;40.24
54870;BME280;40756;-37.950;145.008;2023-12-22T08:03:01;101280.33;;;20.78;39.54
54870;BME280;40756;-37.950;145.008;2023-12-22T08:05:33;101285.25;;;20.16;39.96
54870;BME280;40756;-37.950;145.008;2023-12-22T08:08:02;101293.14;;;19.34;41.21
54870;BME280;40756;-37.950;145.008;2023-12-22T08:10:31;101288.27;;;19.02;41.54
54870;BME280;40756;-37.950;145.008;2023-12-22T08:13:02;101299.60;;;18.90;42.01
54870;BME280;40756;-37.950;145.008;2023-12-22T08:15:31;101296.59;;;19.68;41.48
54870;BME280;40756;-37.950;145.008;2023-12-22T08:18:01;101299.66;;;20.44;39.82
54870;BME280;40756;-37.950;145.008;2023-12-22T08:20:30;101302.03;;;18.33;42.89
54870;BME280;40756;-37.950;145.008;2023-12-22T08:23:00;101300.01;;;19.28;42.21
54870;BME280;40756;-37.950;145.008;2023-12-22T08:25:29;101299.85;;;19.65;41.38
54870;BME280;40756;-37.950;145.008;2023-12-22T08:27:59;101304.94;;;20.04;40.89
54870;BME280;40756;-37.950;145.008;2023-12-22T08:30:28;101307.30;;;18.57;43.32
54870;BME280;40756;-37.950;145.008;2023-12-22T08:32:58;101306.28;;;19.43;42.01
54870;BME280;40756;-37.950;145.008;2023-12-22T08:35:27;101313.05;;;18.05;44.33
54870;BME280;40756;-37.950;145.008;2023-12-22T08:37:57;101312.37;;;18.85;42.96
54870;BME280;40756;-37.950;145.008;2023-12-22T08:40:26;101316.79;;;18.42;44.03
54870;BME280;40756;-37.950;145.008;2023-12-22T08:42:56;101310.53;;;18.87;43.41
54870;BME280;40756;-37.950;145.008;2023-12-22T08:45:25;101309.62;;;19.31;43.32
54870;BME280;40756;-37.950;145.008;2023-12-22T08:47:55;101314.95;;;19.28;42.42
54870;BME280;40756;-37.950;145.008;2023-12-22T08:50:25;101314.10;;;19.28;42.20
54870;BME280;40756;-37.950;145.008;2023-12-22T08:52:54;101309.69;;;19.63;41.73
54870;BME280;40756;-37.950;145.008;2023-12-22T08:55:24;101307.94;;;19.21;42.47
54870;BME280;40756;-37.950;145.008;2023-12-22T08:57:53;101313.14;;;19.23;42.59
54870;BME280;40756;-37.950;145.008;2023-12-22T09:00:23;101313.71;;;18.72;43.52
54870;BME280;40756;-37.950;145.008;2023-12-22T09:02:52;101316.17;;;18.19;44.20
54870;BME280;40756;-37.950;145.008;2023-12-22T09:05:22;101312.36;;;17.66;45.07
54870;BME280;40756;-37.950;145.008;2023-12-22T09:07:51;101308.97;;;18.52;44.91
54870;BME280;40756;-37.950;145.008;2023-12-22T09:10:22;101313.26;;;17.47;46.12
54870;BME280;40756;-37.950;145.008;2023-12-22T09:12:51;101309.43;;;18.24;45.82
54870;BME280;40756;-37.950;145.008;2023-12-22T09:15:20;101309.25;;;17.11;46.82
54870;BME280;40756;-37.950;145.008;2023-12-22T09:17:50;101306.45;;;18.87;44.11
54870;BME280;40756;-37.950;145.008;2023-12-22T09:20:20;101310.84;;;18.22;44.90
54870;BME280;40756;-37.950;145.008;2023-12-22T09:22:49;101318.48;;;17.35;45.95
54870;BME280;40756;-37.950;145.008;2023-12-22T09:25:19;101316.05;;;18.31;44.91
54870;BME280;40756;-37.950;145.008;2023-12-22T09:27:48;101323.42;;;17.40;46.65
54870;BME280;40756;-37.950;145.008;2023-12-22T09:30:18;101323.92;;;16.93;47.33
54870;BME280;40756;-37.950;145.008;2023-12-22T09:32:47;101326.12;;;17.63;46.68
54870;BME280;40756;-37.950;145.008;2023-12-22T09:35:17;101327.48;;;17.97;46.42
54870;BME280;40756;-37.950;145.008;2023-12-22T09:37:46;101327.59;;;18.34;45.55
54870;BME280;40756;-37.950;145.008;2023-12-22T09:40:16;101330.47;;;17.30;46.82
54870;BME280;40756;-37.950;145.008;2023-12-22T09:42:46;101327.02;;;18.26;45.76
54870;BME280;40756;-37.950;145.008;2023-12-22T09:45:17;101327.95;;;17.66;46.33
54870;BME280;40756;-37.950;145.008;2023-12-22T09:47:49;101331.82;;;17.94;46.40
54870;BME280;40756;-37.950;145.008;2023-12-22T09:50:21;101331.96;;;17.64;46.10
54870;BME280;40756;-37.950;145.008;2023-12-22T09:52:51;101332.37;;;17.80;45.34
54870;BME280;40756;-37.950;145.008;2023-12-22T09:55:22;101337.00;;;16.61;46.61
54870;BME280;40756;-37.950;145.008;2023-12-22T09:57:52;101337.34;;;17.64;44.64
54870;BME280;40756;-37.950;145.008;2023-12-22T10:00:24;101335.31;;;16.39;46.60
54870;BME280;40756;-37.950;145.008;2023-12-22T10:02:54;101329.85;;;17.37;45.59
54870;BME280;40756;-37.950;145.008;2023-12-22T10:05:23;101333.32;;;17.21;45.41
54870;BME280;40756;-37.950;145.008;2023-12-22T10:07:53;101330.86;;;16.89;45.69
54870;BME280;40756;-37.950;145.008;2023-12-22T10:10:24;101336.92;;;17.01;45.52
54870;BME280;40756;-37.950;145.008;2023-12-22T10:12:55;101331.67;;;17.01;46.15
54870;BME280;40756;-37.950;145.008;2023-12-22T10:15:25;101336.30;;;17.90;44.12
54870;BME280;40756;-37.950;145.008;2023-12-22T10:17:55;101332.20;;;16.50;46.34
54870;BME280;40756;-37.950;145.008;2023-12-22T10:20:26;101338.04;;;16.72;46.17
54870;BME280;40756;-37.950;145.008;2023-12-22T10:22:55;101339.89;;;16.94;46.04
54870;BME280;40756;-37.950;145.008;2023-12-22T10:25:28;101344.40;;;16.15;47.05
54870;BME280;40756;-37.950;145.008;2023-12-22T10:27:59;101342.28;;;16.58;46.45
54870;BME280;40756;-37.950;145.008;2023-12-22T10:30:29;101340.70;;;16.49;47.84
54870;BME280;40756;-37.950;145.008;2023-12-22T10:32:59;101341.93;;;16.60;46.30
54870;BME280;40756;-37.950;145.008;2023-12-22T10:35:28;101343.23;;;16.91;45.46
54870;BME280;40756;-37.950;145.008;2023-12-22T10:37:58;101343.68;;;17.56;44.11
54870;BME280;40756;-37.950;145.008;2023-12-22T10:40:27;101347.71;;;17.21;44.65
54870;BME280;40756;-37.950;145.008;2023-12-22T10:42:57;101347.58;;;16.11;46.30
54870;BME280;40756;-37.950;145.008;2023-12-22T10:45:27;101346.54;;;16.41;45.82
54870;BME280;40756;-37.950;145.008;2023-12-22T10:47:58;101345.13;;;16.66;45.54
54870;BME280;40756;-37.950;145.008;2023-12-22T10:50:29;101351.14;;;17.55;44.54
54870;BME280;40756;-37.950;145.008;2023-12-22T10:52:59;101348.61;;;17.28;43.95
54870;BME280;40756;-37.950;145.008;2023-12-22T10:55:41;101346.86;;;17.56;43.76
54870;BME280;40756;-37.950;145.008;2023-12-22T10:58:11;101349.07;;;16.41;44.99
54870;BME280;40756;-37.950;145.008;2023-12-22T11:00:43;101351.33;;;17.20;43.97
54870;BME280;40756;-37.950;145.008;2023-12-22T11:03:18;101354.37;;;17.28;43.89
54870;BME280;40756;-37.950;145.008;2023-12-22T11:05:55;101351.54;;;16.87;44.63
54870;BME280;40756;-37.950;145.008;2023-12-22T11:08:27;101354.66;;;15.70;46.12
54870;BME280;40756;-37.950;145.008;2023-12-22T11:11:00;101351.92;;;16.18;45.49
54870;BME280;40756;-37.950;145.008;2023-12-22T11:13:35;101344.92;;;16.58;44.82
54870;BME280;40756;-37.950;145.008;2023-12-22T11:16:07;101351.06;;;15.73;46.37
54870;BME280;40756;-37.950;145.008;2023-12-22T11:18:38;101349.13;;;16.24;45.43
54870;BME280;40756;-37.950;145.008;2023-12-22T11:21:09;101349.01;;;16.40;44.81
54870;BME280;40756;-37.950;145.008;2023-12-22T11:23:39;101354.54;;;16.00;45.14
54870;BME280;40756;-37.950;145.008;2023-12-22T11:26:12;101357.90;;;16.44;44.44
54870;BME280;40756;-37.950;145.008;2023-12-22T11:28:43;101362.99;;;15.67;45.04
54870;BME280;40756;-37.950;145.008;2023-12-22T11:31:14;101358.45;;;16.68;43.45
54870;BME280;40756;-37.950;145.008;2023-12-22T11:33:45;101359.54;;;17.25;43.21
54870;BME280;40756;-37.950;145.008;2023-12-22T11:36:14;101356.90;;;16.23;44.29
54870;BME280;40756;-37.950;145.008;2023-12-22T11:38:46;101353.41;;;16.42;43.82
54870;BME280;40756;-37.950;145.008;2023-12-22T11:41:19;101352.45;;;16.22;44.19
54870;BME280;40756;-37.950;145.008;2023-12-22T11:43:52;101348.75;;;16.38;44.01
54870;BME280;40756;-37.950;145.008;2023-12-22T11:46:22;101350.92;;;16.06;44.36
54870;BME280;40756;-37.950;145.008;2023-12-22T11:48:52;101354.79;;;16.98;43.46
54870;BME280;40756;-37.950;145.008;2023-12-22T11:51:22;101358.50;;;16.15;44.61
54870;BME280;40756;-37.950;145.008;2023-12-22T11:53:53;101360.17;;;16.08;44.82
54870;BME280;40756;-37.950;145.008;2023-12-22T11:56:22;101352.00;;;16.60;44.05
54870;BME280;40756;-37.950;145.008;2023-12-22T11:58:54;101345.34;;;15.88;44.91
54870;BME280;40756;-37.950;145.008;2023-12-22T12:01:25;101346.18;;;15.75;44.89
54870;BME280;40756;-37.950;145.008;2023-12-22T12:03:57;101345.34;;;16.46;43.26
54870;BME280;40756;-37.950;145.008;2023-12-22T12:06:35;101346.65;;;15.71;44.62
54870;BME280;40756;-37.950;145.008;2023-12-22T12:09:06;101345.73;;;16.04;44.65
54870;BME280;40756;-37.950;145.008;2023-12-22T12:12:41;101348.40;;;15.51;44.92
54870;BME280;40756;-37.950;145.008;2023-12-22T12:15:17;101342.73;;;16.17;44.64
54870;BME280;40756;-37.950;145.008;2023-12-22T12:17:46;101330.78;;;15.86;45.13
54870;BME280;40756;-37.950;145.008;2023-12-22T12:20:17;101332.58;;;14.97;45.59
54870;BME280;40756;-37.950;145.008;2023-12-22T12:22:47;101333.02;;;14.73;47.02
54870;BME280;40756;-37.950;145.008;2023-12-22T12:25:16;101329.29;;;15.62;45.77
54870;BME280;40756;-37.950;145.008;2023-12-22T12:27:46;101331.42;;;14.81;46.35
54870;BME280;40756;-37.950;145.008;2023-12-22T12:30:16;101327.65;;;15.47;45.61
54870;BME280;40756;-37.950;145.008;2023-12-22T12:32:45;101329.03;;;14.61;47.12
54870;BME280;40756;-37.950;145.008;2023-12-22T12:35:19;101327.95;;;14.66;47.30